createdAt,value
2023-03-02T00:02:10.635Z,101428.66
2023-03-02T00:07:34.787Z,101417.28
2023-03-02T00:12:58.329Z,101423.97
2023-03-02T00:18:20.167Z,101422.22
2023-03-02T00:23:42.039Z,101420.38
2023-03-02T00:29:04.380Z,101410.91
2023-03-02T00:34:26.346Z,101414.91
2023-03-02T00:39:48.256Z,101418.03
2023-03-02T00:45:10.228Z,101415.50
2023-03-02T00:50:32.136Z,101423.09
2023-03-02T00:55:54.976Z,101421.25
2023-03-02T01:01:18.697Z,101419.38
2023-03-02T01:06:40.779Z,101411.75
2023-03-02T01:12:02.683Z,101396.31
2023-03-02T01:17:24.686Z,101409.88
2023-03-02T01:22:46.585Z,101402.84
2023-03-02T01:28:08.468Z,101397.31
2023-03-02T01:33:31.350Z,101410.81
2023-03-02T01:38:53.267Z,101408.66
2023-03-02T01:44:40.026Z,101396.59
2023-03-02T01:50:16.558Z,101401.47
2023-03-02T01:55:39.326Z,101403.00
2023-03-02T02:01:01.262Z,101393.56
2023-03-02T02:06:35.117Z,101401.41
2023-03-02T02:11:57.220Z,101394.41
2023-03-02T02:17:19.877Z,101410.81
2023-03-02T02:23:11.473Z,101408.78
2023-03-02T02:29:08.959Z,101413.13
2023-03-02T02:34:50.731Z,101390.31
2023-03-02T02:40:18.465Z,101392.66
2023-03-02T02:45:41.044Z,101381.72
2023-03-02T02:51:03.125Z,101383.56
2023-03-02T02:56:28.460Z,101363.97
2023-03-02T03:01:51.302Z,101368.34
2023-03-02T03:07:19.662Z,101378.00
2023-03-02T03:12:42.531Z,101367.72
2023-03-02T03:18:04.474Z,101373.78
2023-03-02T03:23:26.632Z,101370.72
2023-03-02T03:28:48.496Z,101347.75
2023-03-02T03:34:11.033Z,101345.22
2023-03-02T03:39:33.313Z,101354.72
2023-03-02T03:44:55.148Z,101346.56
2023-03-02T03:50:17.081Z,101359.19
2023-03-02T03:55:39.020Z,101365.28
2023-03-02T04:01:00.852Z,101363.75
2023-03-02T04:06:22.674Z,101367.53
2023-03-02T04:11:47.219Z,101357.88
2023-03-02T04:17:09.107Z,101348.09
2023-03-02T04:22:30.960Z,101370.84
2023-03-02T04:27:53.604Z,101365.59
2023-03-02T04:33:15.420Z,101359.16
2023-03-02T04:38:37.262Z,101366.44
2023-03-02T04:43:59.275Z,101355.34
2023-03-02T04:49:21.182Z,101343.28
2023-03-02T04:54:42.983Z,101355.16
2023-03-02T05:00:05.348Z,101361.50
2023-03-02T05:05:27.803Z,101375.38
2023-03-02T05:10:49.645Z,101370.03
2023-03-02T05:16:11.632Z,101363.66
2023-03-02T05:21:33.988Z,101374.28
2023-03-02T05:26:55.871Z,101379.31
2023-03-02T05:32:17.821Z,101381.91
2023-03-02T05:37:40.006Z,101388.94
2023-03-02T05:43:02.349Z,101384.97
2023-03-02T05:48:24.212Z,101381.34
2023-03-02T05:53:46.046Z,101390.31
2023-03-02T05:59:08.550Z,101406.06
2023-03-02T06:04:30.585Z,101405.44
2023-03-02T06:09:52.476Z,101404.28
2023-03-02T06:15:14.335Z,101395.75
2023-03-02T06:20:36.166Z,101427.56
2023-03-02T06:25:58.632Z,101429.41
2023-03-02T06:31:21.241Z,101435.19
2023-03-02T06:36:43.196Z,101445.28
2023-03-02T06:42:05.042Z,101423.19
2023-03-02T06:47:26.892Z,101414.06
2023-03-02T06:52:48.833Z,101433.31
2023-03-02T06:58:10.668Z,101441.59
2023-03-02T07:03:32.565Z,101449.97
2023-03-02T07:08:54.582Z,101438.53
2023-03-02T07:14:16.448Z,101438.00
2023-03-02T07:19:40.648Z,101444.22
2023-03-02T07:25:03.028Z,101421.94
2023-03-02T07:30:25.729Z,101433.97
2023-03-02T07:35:48.089Z,101421.56
2023-03-02T07:41:10.441Z,101425.78
2023-03-02T07:46:32.362Z,101414.56
2023-03-02T07:51:54.302Z,101420.47
2023-03-02T07:57:16.294Z,101423.22
2023-03-02T08:02:40.052Z,101420.06
2023-03-02T08:08:02.015Z,101399.28
2023-03-02T08:13:23.837Z,101409.88
2023-03-02T08:18:45.713Z,101409.97
2023-03-02T08:24:07.830Z,101393.69
2023-03-02T08:29:30.666Z,101391.66
2023-03-02T08:34:52.555Z,101386.84
2023-03-02T08:40:14.658Z,101389.81
2023-03-02T08:45:36.567Z,101370.69
2023-03-02T08:51:07.710Z,101392.47
2023-03-02T08:56:33.182Z,101383.91
2023-03-02T09:01:55.287Z,101385.94
2023-03-02T09:07:17.219Z,101391.72
2023-03-02T09:12:39.157Z,101386.25
2023-03-02T09:18:01.048Z,101388.75
2023-03-02T09:23:23.151Z,101377.13
2023-03-02T09:28:45.011Z,101382.03
2023-03-02T09:34:06.923Z,101380.63
2023-03-02T09:39:28.808Z,101365.84
2023-03-02T09:45:00.144Z,101372.78
2023-03-02T09:50:34.833Z,101348.00
2023-03-02T09:55:59.001Z,101369.16
2023-03-02T10:01:32.675Z,101364.41
2023-03-02T10:07:19.966Z,101357.69
2023-03-02T10:13:19.085Z,101366.47
2023-03-02T10:19:05.609Z,101358.94
2023-03-02T10:24:45.792Z,101350.28
2023-03-02T10:30:14.606Z,101345.09
2023-03-02T10:35:37.980Z,101348.44
2023-03-02T10:41:05.862Z,101351.66
2023-03-02T10:46:39.655Z,101343.19
2023-03-02T10:52:03.467Z,101338.91
2023-03-02T10:57:34.425Z,101324.63
2023-03-02T11:03:01.908Z,101330.13
2023-03-02T11:08:28.559Z,101324.47
2023-03-02T11:13:50.504Z,101318.63
2023-03-02T11:19:17.590Z,101318.69
2023-03-02T11:31:14.208Z,101309.25
2023-03-02T11:36:44.237Z,101301.94
2023-03-02T11:42:19.267Z,101311.06
2023-03-02T11:47:57.651Z,101305.59
2023-03-02T11:53:30.306Z,101309.25
2023-03-02T11:58:59.691Z,101310.38
2023-03-02T12:04:27.563Z,101283.25
2023-03-02T12:10:04.517Z,101290.13
2023-03-02T12:15:42.938Z,101285.06
2023-03-02T12:21:23.259Z,101287.69
2023-03-02T12:26:45.239Z,101285.22
2023-03-02T12:32:13.892Z,101268.91
2023-03-02T12:37:53.640Z,101268.06
2023-03-02T12:43:35.100Z,101260.13
2023-03-02T12:49:14.099Z,101273.59
2023-03-02T12:54:36.170Z,101258.34
2023-03-02T13:00:01.442Z,101260.22
2023-03-02T13:05:28.810Z,101250.13
2023-03-02T13:10:53.780Z,101244.06
2023-03-02T13:16:41.074Z,101248.22
2023-03-02T13:22:04.253Z,101239.03
2023-03-02T13:27:26.897Z,101239.91
2023-03-02T13:32:49.113Z,101221.34
2023-03-02T13:38:17.600Z,101225.59
2023-03-02T13:43:39.783Z,101232.13
2023-03-02T13:49:10.376Z,101215.03
2023-03-02T13:54:37.656Z,101211.66
2023-03-02T13:59:59.985Z,101208.19
2023-03-02T14:05:24.000Z,101196.53
2023-03-02T14:10:46.981Z,101187.13
2023-03-02T14:16:16.504Z,101175.22
2023-03-02T14:21:38.541Z,101165.97
2023-03-02T14:27:00.727Z,101144.19
2023-03-02T14:32:22.599Z,101151.88
2023-03-02T14:37:48.473Z,101149.31
2023-03-02T14:43:10.928Z,101142.25
2023-03-02T14:48:32.787Z,101137.91
2023-03-02T14:53:58.010Z,101131.09
2023-03-02T14:59:19.955Z,101138.75
2023-03-02T15:04:41.849Z,101140.44
2023-03-02T15:10:04.068Z,101115.63
2023-03-02T15:15:25.913Z,101133.63
2023-03-02T15:20:47.790Z,101121.78
2023-03-02T15:26:10.564Z,101112.44
2023-03-02T15:31:32.773Z,101106.88
2023-03-02T15:36:54.875Z,101109.63
2023-03-02T15:42:16.694Z,101104.34
2023-03-02T15:47:38.538Z,101106.56
2023-03-02T15:53:00.423Z,101109.78
2023-03-02T15:58:22.642Z,101103.38
2023-03-02T16:03:44.715Z,101113.53
2023-03-02T16:09:07.052Z,101111.56
2023-03-02T16:14:28.937Z,101109.84
2023-03-02T16:19:50.759Z,101098.75
2023-03-02T16:25:12.623Z,101098.59
2023-03-02T16:30:34.794Z,101095.00
2023-03-02T16:35:56.623Z,101104.22
2023-03-02T16:41:23.727Z,101095.53
2023-03-02T16:46:45.753Z,101091.03
2023-03-02T16:52:07.584Z,101096.13
2023-03-02T16:57:29.440Z,101095.91
2023-03-02T17:02:51.838Z,101088.16
2023-03-02T17:08:15.372Z,101103.34
2023-03-02T17:13:37.415Z,101096.47
2023-03-02T17:18:59.983Z,101104.91
2023-03-02T17:24:21.886Z,101102.34
2023-03-02T17:29:43.799Z,101084.16
2023-03-02T17:35:07.397Z,101088.38
2023-03-02T17:40:29.330Z,101100.16
2023-03-02T17:45:51.229Z,101102.66
2023-03-02T17:51:13.267Z,101088.13
2023-03-02T17:56:35.209Z,101090.56
2023-03-02T18:01:57.091Z,101085.31
2023-03-02T18:07:19.054Z,101067.50
2023-03-02T18:12:41.025Z,101082.75
2023-03-02T18:18:03.198Z,101073.38
2023-03-02T18:23:25.262Z,101074.97
2023-03-02T18:28:47.234Z,101071.34
2023-03-02T18:34:09.222Z,101078.22
2023-03-02T18:39:31.179Z,101071.34
2023-03-02T18:44:53.283Z,101082.28
2023-03-02T18:50:15.187Z,101080.34
2023-03-02T18:55:37.130Z,101070.91
2023-03-02T19:00:58.980Z,101065.75
2023-03-02T19:06:22.070Z,101074.13
2023-03-02T19:11:43.985Z,101069.97
2023-03-02T19:17:05.830Z,101057.03
2023-03-02T19:22:27.693Z,101077.44
2023-03-02T19:27:49.694Z,101071.41
2023-03-02T19:33:11.572Z,101067.25
2023-03-02T19:38:33.445Z,101071.50
2023-03-02T19:43:55.275Z,101055.28
2023-03-02T19:49:17.395Z,101078.16
2023-03-02T19:54:39.216Z,101060.03
2023-03-02T20:00:01.037Z,101071.22
2023-03-02T20:05:23.209Z,101069.34
2023-03-02T20:10:46.555Z,101040.78
2023-03-02T20:16:08.835Z,101070.88
2023-03-02T20:21:31.678Z,101076.88
2023-03-02T20:26:53.552Z,101071.69
2023-03-02T20:32:16.013Z,101052.16
2023-03-02T20:37:38.574Z,101050.31
2023-03-02T20:43:00.463Z,101062.16
2023-03-02T20:48:22.527Z,101052.72
2023-03-02T20:53:44.420Z,101045.88
2023-03-02T20:59:06.328Z,101021.94
2023-03-02T21:04:28.274Z,101028.81
2023-03-02T21:09:50.207Z,101038.38
2023-03-02T21:15:12.384Z,101031.47
2023-03-02T21:20:34.732Z,101011.06
2023-03-02T21:25:56.691Z,101009.31
2023-03-02T21:31:18.628Z,101017.91
2023-03-02T21:36:41.961Z,101001.09
2023-03-02T21:42:03.966Z,101005.28
2023-03-02T21:47:25.811Z,100974.63
2023-03-02T21:52:47.935Z,100994.38
2023-03-02T21:58:10.469Z,100996.06
2023-03-02T22:03:32.319Z,100996.09
2023-03-02T22:08:55.122Z,100989.38
2023-03-02T22:14:17.775Z,100977.56
2023-03-02T22:19:43.031Z,100976.72
2023-03-02T22:25:14.516Z,100981.97
2023-03-02T22:30:36.340Z,100973.53
2023-03-02T22:36:11.655Z,100973.44
2023-03-02T22:41:33.636Z,100981.13
2023-03-02T22:46:56.096Z,100965.66
2023-03-02T22:52:23.812Z,100983.66
2023-03-02T22:57:45.704Z,100974.28
2023-03-02T23:03:44.288Z,100971.63
2023-03-02T23:09:06.690Z,100958.97
2023-03-02T23:14:52.939Z,100951.91
2023-03-02T23:20:16.179Z,100949.53
2023-03-02T23:25:38.053Z,100936.72
2023-03-02T23:30:59.901Z,100939.28
2023-03-02T23:36:21.813Z,100938.38
2023-03-02T23:41:43.706Z,100940.78
2023-03-02T23:47:05.647Z,100942.53
2023-03-02T23:52:27.490Z,100930.53
2023-03-02T23:57:49.389Z,100922.97
